Macau International Airport
VMMC : now visible

Airfield :











YOU CAN JOIN US ON...

 
LOGIN :

Register | Disclaimer

   EN    FR    IT 

 









Legend :    VFR   Marginal VFR   IFR   Intensive IFR   Very Intensive IFR
Visi :
Ceiling :
>= 8 km
>= 3000ft
5 to 8 km
1000 to 3000 ft
1500m to 5 km
500 to 1000 ft
800 to 1500m
200 to 500 ft
< 800m
< 200 ft
Symbols :   Thunderstorms  Fog  Heavy snow  Heavy precipitations  Wind > 20 kt







- Airport Elevation : 20 ft
- IATA code : MFM


VMMC - Macau International

CURRENT METAR :
  • 250030Z 10010KT 060V120 9999 FEW010 SCT025 27/25 Q1009 NOSIG

EXPIRED METARs :
  • 250000Z 10009KT 9000 FEW009 SCT025 27/25 Q1009 NOSIG
  • 242330Z 11011KT 8000 FEW008 SCT022 26/25 Q1009 NOSIG
  • 242300Z 10011KT 7000 -SHRA FEW009 SCT020 26/25 Q1008 NOSIG
  • 242230Z 11011KT 9000 FEW009 SCT020 26/25 Q1008 NOSIG
  • 242200Z 11011KT 9000 FEW009 SCT022 26/25 Q1008 NOSIG

TAF TAF VMMC
Valid from the 25 at 00:00 until the 26 at 06:00 UTC


242300Z 2500/2606 11010KT 7000 FEW010 SCT020
TEMPO 2503/2510 3500 SHRA FEW008 SCT015CB
ZGZU FIR / Asia



MET'MAP, your aeronautical weather chart ! - Copyright ORBIFLY December 2007 - Disclaimer

ORBIFLY MET'MAP TEAM :

Programming & Development : Alexandra Zaïnal
Concept & Development : Baudouin d'Aumeries
Co-Development & Prog : Marc-Olivier Méhu
Technical & hardware support : Manuel Goepfert

Contact : metmap@orbifly.com




SOURCES & CREDITS :

   NOAA       Earth
Advisory